createdAt,value
2018-08-23T00:01:30.330Z,98332.69
2018-08-23T00:04:05.622Z,98328.63
2018-08-23T00:06:32.943Z,98326.03
2018-08-23T00:09:00.203Z,98320.81
2018-08-23T00:11:31.348Z,98323.84
2018-08-23T00:13:58.661Z,98319.20
2018-08-23T00:16:33.110Z,98321.39
2018-08-23T00:21:51.034Z,98316.42
2018-08-23T00:24:20.498Z,98315.20
2018-08-23T00:26:56.438Z,98310.25
2018-08-23T00:29:33.335Z,98304.65
2018-08-23T00:32:04.973Z,98306.20
2018-08-23T00:34:34.568Z,98298.96
2018-08-23T00:37:03.348Z,98303.55
2018-08-23T00:39:30.807Z,98306.24
2018-08-23T00:42:03.657Z,98296.70
2018-08-23T00:44:42.260Z,98301.51
2018-08-23T00:47:09.505Z,98297.31
2018-08-23T00:49:36.807Z,98299.81
2018-08-23T00:52:04.088Z,98297.22
2018-08-23T00:54:31.322Z,98297.91
2018-08-23T00:56:58.559Z,98296.09
2018-08-23T00:59:25.803Z,98296.58
2018-08-23T01:02:01.421Z,98290.49
2018-08-23T01:04:29.887Z,98295.47
2018-08-23T01:06:57.137Z,98300.22
2018-08-23T01:09:24.486Z,98298.91
2018-08-23T01:11:51.764Z,98298.14
2018-08-23T01:14:18.998Z,98293.02
2018-08-23T01:16:57.973Z,98300.61
2018-08-23T01:19:30.862Z,98297.29
2018-08-23T01:21:58.175Z,98291.27
2018-08-23T01:24:28.422Z,98295.47
2018-08-23T01:26:55.682Z,98289.45
2018-08-23T01:29:27.947Z,98288.23
2018-08-23T01:32:02.214Z,98285.27
2018-08-23T01:34:29.447Z,98285.93
2018-08-23T01:36:56.690Z,98283.84
2018-08-23T01:39:23.932Z,98284.61
2018-08-23T01:41:51.187Z,98282.05
2018-08-23T01:44:18.988Z,98278.34
2018-08-23T01:46:46.238Z,98277.38
2018-08-23T01:49:13.514Z,98275.50
2018-08-23T01:51:41.022Z,98274.82
2018-08-23T01:54:08.269Z,98275.02
2018-08-23T01:56:35.504Z,98275.20
2018-08-23T01:59:02.794Z,98268.16
2018-08-23T02:01:30.060Z,98262.45
2018-08-23T02:03:57.304Z,98260.25
2018-08-23T02:06:30.307Z,98263.78
2018-08-23T02:08:57.553Z,98266.72
2018-08-23T02:11:24.834Z,98257.22
2018-08-23T02:13:52.097Z,98248.47
2018-08-23T02:16:19.358Z,98256.64
2018-08-23T02:18:46.639Z,98252.47
2018-08-23T02:21:13.856Z,98253.70
2018-08-23T02:23:42.826Z,98252.64
2018-08-23T02:26:10.138Z,98248.84
2018-08-23T02:28:37.380Z,98251.88
2018-08-23T02:31:04.657Z,98260.44
2018-08-23T02:33:31.964Z,98252.64
2018-08-23T02:36:21.702Z,98253.22
2018-08-23T02:38:54.428Z,98258.55
2018-08-23T02:41:21.646Z,98255.50
2018-08-23T02:43:48.891Z,98253.58
2018-08-23T02:46:16.303Z,98253.84
2018-08-23T02:48:43.780Z,98247.28
2018-08-23T02:51:11.025Z,98249.38
2018-08-23T02:53:42.663Z,98247.77
2018-08-23T02:56:13.312Z,98251.76
2018-08-23T02:58:59.523Z,98249.38
2018-08-23T03:01:29.548Z,98246.92
2018-08-23T03:04:08.851Z,98254.17
2018-08-23T03:06:43.613Z,98248.45
2018-08-23T03:09:10.919Z,98252.27
2018-08-23T03:11:38.152Z,98253.50
2018-08-23T03:14:05.893Z,98252.64
2018-08-23T03:16:45.872Z,98255.29
2018-08-23T03:19:14.505Z,98252.89
2018-08-23T03:21:42.234Z,98248.05
2018-08-23T03:24:10.396Z,98247.39
2018-08-23T03:26:37.973Z,98247.48
2018-08-23T03:29:05.394Z,98242.77
2018-08-23T03:31:32.644Z,98246.48
2018-08-23T03:33:59.903Z,98247.44
2018-08-23T03:36:27.154Z,98241.14
2018-08-23T03:38:54.391Z,98245.02
2018-08-23T03:41:21.635Z,98252.53
2018-08-23T03:43:48.890Z,98250.41
2018-08-23T03:46:16.157Z,98252.69
2018-08-23T03:48:45.571Z,98257.06
2018-08-23T03:51:12.825Z,98254.66
2018-08-23T03:53:47.513Z,98254.00
2018-08-23T03:56:15.979Z,98255.11
2018-08-23T03:58:43.493Z,98264.61
2018-08-23T04:01:13.054Z,98258.31
2018-08-23T04:03:40.451Z,98260.74
2018-08-23T04:06:25.131Z,98259.41
2018-08-23T04:08:52.499Z,98254.16
2018-08-23T04:11:20.814Z,98253.20
2018-08-23T04:13:49.140Z,98252.11
2018-08-23T04:16:24.522Z,98253.54
2018-08-23T04:18:52.020Z,98245.66
2018-08-23T04:21:19.338Z,98254.58
2018-08-23T04:23:46.731Z,98251.35
2018-08-23T04:26:14.070Z,98247.02
2018-08-23T04:28:41.521Z,98247.78
2018-08-23T04:31:08.792Z,98251.55
2018-08-23T04:33:36.124Z,98249.45
2018-08-23T04:36:03.550Z,98253.06
2018-08-23T04:38:30.942Z,98250.78
2018-08-23T04:41:03.013Z,98248.13
2018-08-23T04:43:30.364Z,98247.37
2018-08-23T04:45:58.201Z,98249.08
2018-08-23T04:48:26.131Z,98246.41
2018-08-23T04:50:53.502Z,98243.47
2018-08-23T04:53:20.938Z,98243.57
2018-08-23T04:55:48.319Z,98250.48
2018-08-23T04:58:15.655Z,98254.80
2018-08-23T05:00:43.523Z,98251.69
2018-08-23T05:03:11.839Z,98247.63
2018-08-23T05:05:39.839Z,98248.89
2018-08-23T05:08:07.258Z,98248.54
2018-08-23T05:10:34.661Z,98242.56
2018-08-23T05:13:02.863Z,98248.95
2018-08-23T05:15:30.250Z,98245.79
2018-08-23T05:17:57.559Z,98252.43
2018-08-23T05:20:24.881Z,98245.23
2018-08-23T05:22:58.063Z,98240.47
2018-08-23T05:25:25.426Z,98238.77
2018-08-23T05:28:07.416Z,98231.16
2018-08-23T05:30:34.789Z,98229.19
2018-08-23T05:33:10.807Z,98227.63
2018-08-23T05:35:38.214Z,98231.28
2018-08-23T05:38:07.160Z,98234.69
2018-08-23T05:40:40.414Z,98227.95
2018-08-23T05:43:07.763Z,98226.38
2018-08-23T05:45:40.755Z,98238.71
2018-08-23T05:48:31.800Z,98232.72
2018-08-23T05:51:08.830Z,98229.73
2018-08-23T05:53:43.930Z,98230.90
2018-08-23T05:56:11.287Z,98229.48
2018-08-23T05:58:38.927Z,98226.15
2018-08-23T06:01:06.474Z,98228.13
2018-08-23T06:03:35.393Z,98226.00
2018-08-23T06:06:02.674Z,98226.95
2018-08-23T06:08:29.960Z,98222.41
2018-08-23T06:11:03.798Z,98218.02
2018-08-23T06:13:31.268Z,98217.66
2018-08-23T06:15:59.307Z,98211.06
2018-08-23T06:18:28.314Z,98217.66
2018-08-23T06:20:55.745Z,98215.52
2018-08-23T06:23:33.934Z,98214.53
2018-08-23T06:26:01.358Z,98212.08
2018-08-23T06:28:28.656Z,98205.14
2018-08-23T06:30:57.779Z,98209.98
2018-08-23T06:33:36.709Z,98206.09
2018-08-23T06:36:04.307Z,98197.55
2018-08-23T06:38:32.653Z,98204.47
2018-08-23T06:41:01.619Z,98198.94
2018-08-23T06:43:29.652Z,98201.59
2018-08-23T06:45:57.318Z,98203.45
2018-08-23T06:48:24.639Z,98197.85
2018-08-23T06:50:54.902Z,98201.56
2018-08-23T06:53:27.694Z,98195.44
2018-08-23T06:55:55.011Z,98183.30
2018-08-23T06:58:22.729Z,98188.28
2018-08-23T07:00:50.068Z,98188.39
2018-08-23T07:03:17.391Z,98190.66
2018-08-23T07:05:44.724Z,98184.06
2018-08-23T07:08:12.034Z,98186.85
2018-08-23T07:10:39.370Z,98181.88
2018-08-23T07:13:06.687Z,98178.34
2018-08-23T07:15:34.107Z,98182.81
2018-08-23T07:18:02.112Z,98181.04
2018-08-23T07:20:29.593Z,98182.82
2018-08-23T07:22:58.270Z,98186.39
2018-08-23T07:25:25.624Z,98185.42
2018-08-23T07:27:53.009Z,98179.46
2018-08-23T07:30:20.571Z,98182.42
2018-08-23T07:32:49.143Z,98181.99
2018-08-23T07:35:17.190Z,98182.38
2018-08-23T07:37:45.878Z,98177.61
2018-08-23T07:40:17.014Z,98175.64
2018-08-23T07:42:45.499Z,98180.05
2018-08-23T07:45:12.943Z,98175.99
2018-08-23T07:47:41.460Z,98166.41
2018-08-23T07:50:09.187Z,98168.88
2018-08-23T07:52:37.209Z,98172.30
2018-08-23T07:55:05.670Z,98171.37
2018-08-23T07:57:34.183Z,98179.30
2018-08-23T08:00:03.751Z,98171.85
2018-08-23T08:02:31.607Z,98173.13
2018-08-23T08:04:59.192Z,98169.93
2018-08-23T08:07:31.444Z,98167.21
2018-08-23T08:10:00.222Z,98166.33
2018-08-23T08:12:36.588Z,98166.55
2018-08-23T08:15:06.028Z,98163.19
2018-08-23T08:17:34.418Z,98165.40
2018-08-23T08:20:05.425Z,98162.05
2018-08-23T08:22:32.762Z,98162.91
2018-08-23T08:25:02.475Z,98168.02
2018-08-23T08:27:30.055Z,98163.05
2018-08-23T08:29:57.388Z,98168.79
2018-08-23T08:32:24.819Z,98167.91
2018-08-23T08:34:53.762Z,98166.80
2018-08-23T08:37:21.112Z,98165.23
2018-08-23T08:39:48.443Z,98157.56
2018-08-23T08:42:15.864Z,98160.08
2018-08-23T08:44:43.181Z,98164.34
2018-08-23T08:47:10.538Z,98164.62
2018-08-23T08:49:37.894Z,98155.83
2018-08-23T08:52:05.852Z,98158.45
2018-08-23T08:54:33.777Z,98154.47
2018-08-23T08:57:03.250Z,98153.62
2018-08-23T08:59:32.189Z,98152.52
2018-08-23T09:02:00.034Z,98157.16
2018-08-23T09:04:32.996Z,98146.60
2018-08-23T09:07:00.462Z,98141.95
2018-08-23T09:09:31.709Z,98137.17
2018-08-23T09:12:01.784Z,98131.67
2018-08-23T09:14:29.864Z,98127.92
2018-08-23T09:16:57.224Z,98123.77
2018-08-23T09:19:36.024Z,98121.00
2018-08-23T09:22:08.890Z,98114.23
2018-08-23T09:24:36.893Z,98111.73
2018-08-23T09:27:08.511Z,98105.48
2018-08-23T09:29:42.530Z,98110.11
2018-08-23T09:32:30.997Z,98103.50
2018-08-23T09:34:59.729Z,98100.56
2018-08-23T09:37:28.266Z,98101.84
2018-08-23T09:39:55.727Z,98089.41
2018-08-23T09:42:23.072Z,98093.81
2018-08-23T09:45:04.284Z,98099.84
2018-08-23T09:47:31.581Z,98091.96
2018-08-23T09:49:59.579Z,98088.14
2018-08-23T09:52:28.928Z,98083.00
2018-08-23T09:54:57.091Z,98079.31
2018-08-23T09:57:24.884Z,98080.67
2018-08-23T09:59:53.523Z,98077.54
2018-08-23T10:02:26.665Z,98081.10
2018-08-23T10:04:54.513Z,98075.27
2018-08-23T10:07:28.147Z,98072.73
2018-08-23T10:15:05.416Z,98060.06
2018-08-23T10:17:38.307Z,98050.27
2018-08-23T10:20:11.611Z,98051.33
2018-08-23T10:22:44.676Z,98052.23
2018-08-23T10:25:29.173Z,98050.97
2018-08-23T10:27:56.524Z,98047.83
2018-08-23T10:30:24.819Z,98043.81
2018-08-23T10:32:52.383Z,98038.24
2018-08-23T10:35:19.798Z,98038.97
2018-08-23T10:37:47.127Z,98036.13
2018-08-23T10:40:14.585Z,98040.39
2018-08-23T10:42:41.902Z,98038.56
2018-08-23T10:45:09.199Z,98046.37
2018-08-23T10:47:42.206Z,98043.28
2018-08-23T10:50:10.208Z,98040.90
2018-08-23T10:52:37.510Z,98043.33
2018-08-23T10:55:05.362Z,98034.28
2018-08-23T10:57:32.673Z,98032.86
2018-08-23T11:00:00.242Z,98033.31
2018-08-23T11:02:27.563Z,98033.83
2018-08-23T11:04:55.583Z,98031.58
2018-08-23T11:07:27.619Z,98027.37
2018-08-23T11:10:00.644Z,98031.99
2018-08-23T11:12:33.670Z,98020.84
2018-08-23T11:15:05.559Z,98018.99
2018-08-23T11:17:45.701Z,98017.83
2018-08-23T11:20:35.988Z,98003.51
2018-08-23T11:23:03.535Z,98006.27
2018-08-23T11:25:30.950Z,98007.47
2018-08-23T11:28:03.875Z,97993.88
2018-08-23T11:30:31.384Z,97994.02
2018-08-23T11:32:58.818Z,97988.77
2018-08-23T11:35:26.235Z,97978.81
2018-08-23T11:37:53.555Z,97978.11
2018-08-23T11:40:20.912Z,97977.80
2018-08-23T11:42:49.359Z,97984.23
2018-08-23T11:45:16.685Z,97975.80
2018-08-23T11:47:44.112Z,97965.63
2018-08-23T11:50:12.025Z,97968.02
2018-08-23T11:52:39.407Z,97969.30
2018-08-23T11:55:07.610Z,97963.94
2018-08-23T11:57:34.957Z,97960.11
2018-08-23T12:00:02.300Z,97953.23
2018-08-23T12:02:30.307Z,97953.03
2018-08-23T12:04:57.849Z,97955.42
2018-08-23T12:07:25.364Z,97948.11
2018-08-23T12:09:53.742Z,97947.52
2018-08-23T12:12:21.233Z,97955.59
2018-08-23T12:14:53.126Z,97952.97
2018-08-23T12:17:20.456Z,97959.05
2018-08-23T12:19:47.845Z,97964.38
2018-08-23T12:22:45.046Z,97971.20
2018-08-23T12:25:13.164Z,97986.70
2018-08-23T12:27:41.578Z,97986.94
2018-08-23T12:30:09.111Z,97985.64
2018-08-23T12:32:36.557Z,97992.80
2018-08-23T12:35:33.225Z,98002.13
2018-08-23T12:38:08.865Z,98024.48
2018-08-23T12:40:41.940Z,98009.16
2018-08-23T12:43:11.194Z,98003.23
2018-08-23T12:45:40.711Z,98005.42
2018-08-23T12:48:09.140Z,98002.26
2018-08-23T12:50:36.745Z,97998.31
2018-08-23T12:53:05.059Z,98001.62
2018-08-23T12:55:32.468Z,97997.69
2018-08-23T12:58:00.691Z,97994.48
2018-08-23T13:00:28.028Z,98002.52
2018-08-23T13:02:55.483Z,98004.81
2018-08-23T13:05:22.821Z,98006.73
2018-08-23T13:07:50.149Z,98003.42
2018-08-23T13:10:17.497Z,98006.00
2018-08-23T13:12:44.931Z,98018.31
2018-08-23T13:15:12.388Z,98031.23
2018-08-23T13:17:40.600Z,98032.70
2018-08-23T13:20:07.960Z,98034.02
2018-08-23T13:22:39.560Z,98045.44
2018-08-23T13:25:08.947Z,98053.81
2018-08-23T13:27:37.105Z,98090.79
2018-08-23T13:30:04.775Z,98100.31
2018-08-23T13:32:32.159Z,98126.61
2018-08-23T13:34:59.666Z,98146.05
2018-08-23T13:37:27.852Z,98167.81
2018-08-23T13:39:56.217Z,98151.43
2018-08-23T13:42:23.604Z,98124.06
2018-08-23T13:44:51.083Z,98123.63
2018-08-23T13:47:19.386Z,98106.35
2018-08-23T13:49:46.870Z,98098.89
2018-08-23T13:52:14.771Z,98085.98
2018-08-23T13:54:43.210Z,98083.44
2018-08-23T13:57:10.527Z,98082.11
2018-08-23T13:59:38.129Z,98063.98
2018-08-23T14:02:05.647Z,98056.34
2018-08-23T14:04:33.142Z,98045.97
2018-08-23T14:07:00.685Z,98040.44
2018-08-23T14:09:28.056Z,98038.89
2018-08-23T14:11:55.457Z,98036.89
2018-08-23T14:14:23.444Z,98031.16
2018-08-23T14:16:50.788Z,98022.64
2018-08-23T14:19:19.314Z,98022.26
2018-08-23T14:21:48.207Z,98019.39
2018-08-23T14:24:16.360Z,98021.62
2018-08-23T14:26:44.179Z,98015.15
2018-08-23T14:29:11.573Z,98007.48
2018-08-23T14:31:39.573Z,98014.52
2018-08-23T14:34:07.654Z,98006.88
2018-08-23T14:36:35.039Z,98006.57
2018-08-23T14:39:02.519Z,98006.61
2018-08-23T14:41:29.890Z,98010.08
2018-08-23T14:43:57.231Z,98014.16
2018-08-23T14:46:30.249Z,98017.20
2018-08-23T14:48:57.616Z,98020.39
2018-08-23T14:51:24.927Z,98023.02
2018-08-23T14:53:52.650Z,98013.83
2018-08-23T14:56:25.693Z,98005.23
2018-08-23T14:58:53.037Z,98007.94
2018-08-23T15:01:20.403Z,98013.88
2018-08-23T15:03:48.601Z,97999.66
2018-08-23T15:06:16.137Z,97996.55
2018-08-23T15:08:43.537Z,97998.19
2018-08-23T15:11:10.897Z,97988.14
2018-08-23T15:13:38.475Z,97992.53
2018-08-23T15:16:06.443Z,97985.98
2018-08-23T15:18:33.838Z,97988.82
2018-08-23T15:21:01.165Z,97981.61
2018-08-23T15:23:28.586Z,97978.91
2018-08-23T15:25:57.341Z,97971.78
2018-08-23T15:28:24.953Z,97962.88
2018-08-23T15:30:52.348Z,97956.23
2018-08-23T15:33:19.748Z,97960.27
2018-08-23T15:35:47.150Z,97955.78
2018-08-23T15:38:14.499Z,97938.09
2018-08-23T15:40:42.037Z,97936.19
2018-08-23T15:43:09.424Z,97926.03
2018-08-23T15:45:36.936Z,97920.93
2018-08-23T15:48:04.745Z,97915.55
2018-08-23T15:50:32.081Z,97917.16
2018-08-23T15:53:00.288Z,97918.43
2018-08-23T15:55:27.795Z,97921.69
2018-08-23T15:57:54.991Z,97915.41
2018-08-23T16:00:22.347Z,97915.27
2018-08-23T16:02:49.858Z,97918.95
2018-08-23T16:05:17.507Z,97916.27
2018-08-23T16:07:44.862Z,97912.72
2018-08-23T16:10:12.261Z,97917.18
2018-08-23T16:12:39.675Z,97916.66
2018-08-23T16:15:12.861Z,97909.31
2018-08-23T16:17:45.862Z,97905.89
2018-08-23T16:20:18.883Z,97896.74
2018-08-23T16:22:46.891Z,97900.94
2018-08-23T16:25:14.231Z,97895.70
2018-08-23T16:27:42.422Z,97894.84
2018-08-23T16:30:09.779Z,97888.08
2018-08-23T16:32:37.201Z,97884.41
2018-08-23T16:35:04.738Z,97877.98
2018-08-23T16:37:32.847Z,97873.09
2018-08-23T16:40:00.285Z,97877.34
2018-08-23T16:42:27.700Z,97872.41
2018-08-23T16:44:55.052Z,97877.85
2018-08-23T16:47:22.491Z,97874.81
2018-08-23T16:49:49.885Z,97868.88
2018-08-23T16:52:17.408Z,97867.87
2018-08-23T16:54:44.766Z,97860.11
2018-08-23T16:57:12.356Z,97856.70
2018-08-23T16:59:39.707Z,97861.93
2018-08-23T17:02:07.149Z,97856.78
2018-08-23T17:04:40.104Z,97851.47
2018-08-23T17:07:07.793Z,97856.00
2018-08-23T17:09:35.291Z,97851.50
2018-08-23T17:12:03.306Z,97853.78
2018-08-23T17:14:31.808Z,97851.59
2018-08-23T17:17:05.151Z,97853.29
2018-08-23T17:19:32.580Z,97860.64
2018-08-23T17:21:59.960Z,97857.89
2018-08-23T17:24:27.432Z,97858.55
2018-08-23T17:26:54.825Z,97853.86
2018-08-23T17:29:22.226Z,97857.58
2018-08-23T17:31:49.596Z,97854.89
2018-08-23T17:34:17.007Z,97855.34
2018-08-23T17:36:44.335Z,97858.58
2018-08-23T17:39:11.769Z,97852.66
2018-08-23T17:41:39.306Z,97857.88
2018-08-23T17:44:06.643Z,97850.02
2018-08-23T17:46:34.004Z,97848.88
2018-08-23T17:49:01.565Z,97849.22
2018-08-23T17:51:28.931Z,97845.80
2018-08-23T17:53:56.319Z,97850.42
2018-08-23T17:56:24.311Z,97849.97
2018-08-23T17:58:51.678Z,97846.58
2018-08-23T18:01:19.159Z,97847.27
2018-08-23T18:03:46.572Z,97852.22
2018-08-23T18:06:14.083Z,97843.66
2018-08-23T18:08:41.576Z,97854.66
2018-08-23T18:11:08.951Z,97850.63
2018-08-23T18:13:36.599Z,97849.86
2018-08-23T18:16:09.548Z,97852.80
2018-08-23T18:18:37.407Z,97848.70
2018-08-23T18:21:05.310Z,97850.43
2018-08-23T18:23:32.803Z,97839.73
2018-08-23T18:26:00.403Z,97841.39
2018-08-23T18:28:27.763Z,97843.41
2018-08-23T18:30:55.150Z,97851.66
2018-08-23T18:33:22.575Z,97840.44
2018-08-23T18:35:49.999Z,97838.77
2018-08-23T18:38:17.429Z,97832.23
2018-08-23T18:40:44.747Z,97830.75
2018-08-23T18:43:12.895Z,97836.39
2018-08-23T18:45:40.432Z,97840.20
2018-08-23T18:48:09.026Z,97844.61
2018-08-23T18:50:36.434Z,97843.67
2018-08-23T18:53:03.936Z,97851.74
2018-08-23T18:55:31.297Z,97851.91
2018-08-23T18:57:58.622Z,97857.34
2018-08-23T19:00:26.263Z,97862.94
2018-08-23T19:02:53.615Z,97867.11
2018-08-23T19:05:21.009Z,97873.37
2018-08-23T19:07:48.350Z,97875.80
2018-08-23T19:10:15.740Z,97875.80
2018-08-23T19:12:44.146Z,97878.25
2018-08-23T19:15:11.473Z,97878.86
2018-08-23T19:17:40.073Z,97880.30
2018-08-23T19:20:08.539Z,97886.05
2018-08-23T19:22:36.143Z,97877.74
2018-08-23T19:25:03.520Z,97885.42
2018-08-23T19:27:30.817Z,97891.77
2018-08-23T19:29:58.183Z,97886.41
2018-08-23T19:32:25.537Z,97883.59
2018-08-23T19:34:52.850Z,97882.87
2018-08-23T19:37:20.183Z,97877.13
2018-08-23T19:39:47.479Z,97883.38
2018-08-23T19:42:14.800Z,97877.62
2018-08-23T19:44:47.670Z,97877.88
2018-08-23T19:47:21.293Z,97878.47
2018-08-23T19:49:51.475Z,97875.92
2018-08-23T19:52:19.041Z,97883.83
2018-08-23T19:54:46.374Z,97881.16
2018-08-23T19:57:13.730Z,97882.73
2018-08-23T19:59:41.021Z,97878.23
2018-08-23T20:02:08.625Z,97879.11
2018-08-23T20:04:35.913Z,97877.14
2018-08-23T20:07:03.196Z,97878.84
2018-08-23T20:09:30.544Z,97870.94
2018-08-23T20:11:57.856Z,97869.61
2018-08-23T20:14:25.748Z,97868.77
2018-08-23T20:16:53.153Z,97866.86
2018-08-23T20:19:20.464Z,97870.30
2018-08-23T20:21:47.814Z,97869.22
2018-08-23T20:24:15.139Z,97869.36
2018-08-23T20:26:42.422Z,97871.67
2018-08-23T20:29:09.685Z,97871.19
2018-08-23T20:31:36.965Z,97867.92
2018-08-23T20:34:04.214Z,97862.66
2018-08-23T20:36:31.455Z,97861.95
2018-08-23T20:38:58.725Z,97872.78
2018-08-23T20:41:25.957Z,97861.23
2018-08-23T20:43:53.187Z,97863.55
2018-08-23T20:46:20.470Z,97868.54
2018-08-23T20:48:47.695Z,97868.90
2018-08-23T20:51:14.907Z,97868.28
2018-08-23T20:53:42.177Z,97868.90
2018-08-23T20:56:09.423Z,97868.41
2018-08-23T20:58:36.664Z,97862.59
2018-08-23T21:01:03.920Z,97880.59
2018-08-23T21:03:31.163Z,97902.00
2018-08-23T21:05:58.370Z,97906.77
2018-08-23T21:08:25.612Z,97916.50
2018-08-23T21:10:53.343Z,97915.28
2018-08-23T21:13:20.610Z,97922.18
2018-08-23T21:15:47.846Z,97916.45
2018-08-23T21:18:15.107Z,97940.30
2018-08-23T21:20:42.367Z,97943.94
2018-08-23T21:23:09.632Z,97939.66
2018-08-23T21:25:36.847Z,97943.33
2018-08-23T21:28:04.139Z,97934.54
2018-08-23T21:30:31.376Z,97936.23
2018-08-23T21:32:58.610Z,97935.50
2018-08-23T21:35:25.887Z,97939.55
2018-08-23T21:37:53.115Z,97940.83
2018-08-23T21:40:20.318Z,97930.69
2018-08-23T21:42:47.578Z,97932.50
2018-08-23T21:45:14.790Z,97920.48
2018-08-23T21:47:42.021Z,97914.74
2018-08-23T21:50:09.267Z,97909.30
2018-08-23T21:52:36.538Z,97913.68
2018-08-23T21:55:04.166Z,97911.13
2018-08-23T21:57:31.997Z,97909.06
2018-08-23T21:59:59.299Z,97910.25
2018-08-23T22:02:26.598Z,97908.18
2018-08-23T22:04:55.294Z,97903.11
2018-08-23T22:07:22.862Z,97886.69
2018-08-23T22:09:51.237Z,97884.98
2018-08-23T22:12:20.230Z,97872.38
2018-08-23T22:14:47.591Z,97867.67
2018-08-23T22:17:14.800Z,97861.36
2018-08-23T22:19:42.311Z,97861.97
2018-08-23T22:22:09.939Z,97859.63
2018-08-23T22:24:37.223Z,97861.09
2018-08-23T22:27:04.893Z,97847.37
2018-08-23T22:29:32.227Z,97856.08
2018-08-23T22:31:59.455Z,97863.00
2018-08-23T22:34:26.701Z,97860.30
2018-08-23T22:36:53.912Z,97851.80
2018-08-23T22:39:21.156Z,97846.67
2018-08-23T22:41:48.692Z,97838.78
2018-08-23T22:44:16.002Z,97835.50
2018-08-23T22:46:43.412Z,97834.74
2018-08-23T22:49:10.875Z,97826.97
2018-08-23T22:51:38.115Z,97834.34
2018-08-23T22:54:05.379Z,97828.64
2018-08-23T22:56:32.611Z,97825.20
2018-08-23T22:58:59.878Z,97829.33
2018-08-23T23:01:27.105Z,97829.21
2018-08-23T23:03:59.848Z,97828.97
2018-08-23T23:06:27.062Z,97815.29
2018-08-23T23:08:54.306Z,97813.87
2018-08-23T23:11:21.626Z,97813.70
2018-08-23T23:13:48.862Z,97808.25
2018-08-23T23:16:22.911Z,97805.94
2018-08-23T23:18:50.117Z,97803.12
2018-08-23T23:21:17.326Z,97798.64
2018-08-23T23:23:44.566Z,97807.12
2018-08-23T23:26:12.128Z,97801.05
2018-08-23T23:28:39.348Z,97803.47
2018-08-23T23:31:06.585Z,97807.75
2018-08-23T23:33:33.832Z,97811.03
2018-08-23T23:36:01.043Z,97812.97
2018-08-23T23:38:28.327Z,97803.39
2018-08-23T23:40:55.545Z,97804.27
2018-08-23T23:43:22.816Z,97799.28
2018-08-23T23:45:50.036Z,97790.90
2018-08-23T23:48:17.316Z,97782.52
2018-08-23T23:50:44.529Z,97790.54
2018-08-23T23:53:11.743Z,97787.50
2018-08-23T23:55:38.985Z,97798.55
2018-08-23T23:58:06.243Z,97799.89
